Time;durP1;ratioP1;P1;durP2;ratioP2;P2;SDS_P1;SDS_P2;PMS_P1;PMS_P2;Temp;Humidity;BMP_temperature;BMP_pressure;BME280_temperature;BME280_humidity;BME280_pressure;Samples;Min_cycle;Max_cycle;Signal;HPM_P1;HPM_P2
2022/03/01 00:01:56;;;;;;;14.35;7.38;;;;;;;-0.12;68.64;93548.41;4994164;28;20407;-88
2022/03/01 00:05:16;;;;;;;11.07;5.88;;;;;;;-0.43;69.22;93505.97;4994477;28;20053;-88
2022/03/01 00:08:08;;;;;;;14.48;6.70;;;;;;;-0.27;69.04;93539.09;4959056;28;20240;-88
2022/03/01 00:11:13;;;;;;;13.95;6.63;;;;;;;-0.25;69.28;93539.69;4978513;28;20119;-87
2022/03/01 00:14:06;;;;;;;14.95;7.32;;;;;;;-0.07;68.73;93561.47;4993840;28;20043;-87
2022/03/01 00:16:55;;;;;;;;;;;;;;;;;;;;;
2022/03/01 00:19:37;;;;;;;;;;;;;;;;;;;;;
2022/03/01 00:22:34;;;;;;;16.30;7.65;;;;;;;-0.48;69.48;93534.06;4989415;28;20035;-88
2022/03/01 00:25:10;;;;;;;13.65;6.70;;;;;;;-0.48;69.28;93537.41;4974644;28;20038;-88
2022/03/01 00:28:07;;;;;;;21.73;7.05;;;;;;;-0.44;69.51;93538.63;4974093;28;20125;-89
2022/03/01 00:30:48;;;;;;;;;;;;;;;;;;;;;
2022/03/01 00:33:49;;;;;;;15.10;6.95;;;;;;;-0.14;70.31;93607.00;4974661;28;20093;-88
2022/03/01 00:39:32;;;;;;;19.10;7.38;;;;;;;-0.28;69.85;93594.09;4993405;28;20042;-88
2022/03/01 00:42:32;;;;;;;21.50;7.05;;;;;;;-0.45;69.15;93556.81;5008562;28;20033;-88
2022/03/01 00:45:18;;;;;;;15.20;7.50;;;;;;;-0.25;69.50;93595.47;4993911;28;20400;-88
2022/03/01 00:48:06;;;;;;;16.63;7.80;;;;;;;-0.57;69.70;93551.41;4993561;28;20104;-88
2022/03/01 00:50:47;;;;;;;15.68;7.30;;;;;;;-0.56;69.81;93559.94;4992663;28;20093;-88
2022/03/01 00:56:43;;;;;;;10.88;6.00;;;;;;;-0.33;69.62;93575.09;5002024;28;20051;-88
2022/03/01 00:59:24;;;;;;;;;;;;;;;;;;;;;
2022/03/01 01:02:09;;;;;;;14.40;7.43;;;;;;;-0.28;70.25;93594.09;4978224;28;20154;-88
2022/03/01 01:05:14;;;;;;;22.10;8.27;;;;;;;-0.06;70.40;93641.09;4977195;28;20027;-89
2022/03/01 01:08:06;;;;;;;;;;;;;;;;;;;;;
2022/03/01 01:10:56;;;;;;;16.50;7.53;;;;;;;-0.63;71.27;93583.84;4993000;28;20495;-87
2022/03/01 01:13:36;;;;;;;11.48;5.68;;;;;;;-0.78;71.35;93583.19;4991407;28;20526;-88
2022/03/01 01:16:12;;;;;;;;;;;;;;;-0.35;71.63;93649.09;5009437;28;20038;-89
2022/03/01 01:18:48;;;;;;;17.98;7.18;;;;;;;-0.83;70.84;93564.97;4976609;28;19913;-89
2022/03/01 01:24:19;;;;;;;11.38;5.68;;;;;;;-0.60;69.70;93636.69;4975514;28;20073;-88
2022/03/01 01:27:27;;;;;;;13.75;6.53;;;;;;;-0.57;68.87;93649.16;4958708;28;20039;-89
2022/03/01 01:30:00;;;;;;;14.32;6.32;;;;;;;-0.66;68.45;93640.78;4967204;28;20050;-89
2022/03/01 01:32:42;;;;;;;9.27;5.20;;;;;;;-0.94;67.68;93586.84;4974113;28;20555;-88
2022/03/01 01:35:32;;;;;;;19.90;6.68;;;;;;;-1.05;67.66;93597.66;4973899;28;20530;-88
2022/03/01 01:38:24;;;;;;;11.02;4.55;;;;;;;-0.95;67.74;93605.03;4961253;28;20042;-87
2022/03/01 01:41:19;;;;;;;13.55;6.63;;;;;;;-1.07;68.08;93595.25;4957567;28;20038;-87
2022/03/01 01:44:01;;;;;;;10.27;5.72;;;;;;;-0.73;68.27;93652.81;4962879;28;20027;-88
2022/03/01 01:46:42;;;;;;;14.18;6.28;;;;;;;-0.85;67.67;93634.56;4992543;28;20089;-88
2022/03/01 01:49:17;;;;;;;10.40;4.40;;;;;;;-1.18;69.01;93647.16;4992678;28;20133;-88
2022/03/01 01:52:15;;;;;;;17.55;6.43;;;;;;;-0.91;69.28;93685.94;4992294;28;20468;-88
2022/03/01 01:55:00;;;;;;;19.02;7.03;;;;;;;-1.22;69.03;93627.94;4990926;28;20110;-88
2022/03/01 01:58:00;;;;;;;;;;;;;;;;;;;;;
2022/03/01 02:00:34;;;;;;;14.90;6.22;;;;;;;-1.44;69.32;93616.13;4993698;28;20100;-88
2022/03/01 02:03:30;;;;;;;10.55;5.30;;;;;;;-1.35;69.00;93630.41;4962672;28;20049;-89
2022/03/01 02:09:01;;;;;;;15.10;5.90;;;;;;;-1.24;67.84;93647.91;4987574;28;20050;-88
2022/03/01 02:11:48;;;;;;;15.02;6.63;;;;;;;-1.30;66.50;93643.53;4978849;28;20038;-89
2022/03/01 02:14:29;;;;;;;13.70;6.05;;;;;;;-1.12;66.56;93684.97;4990119;28;20041;-89
2022/03/01 02:17:03;;;;;;;12.35;5.00;;;;;;;-1.19;65.70;93649.91;4961276;28;20089;-90
2022/03/01 02:19:51;;;;;;;14.50;6.05;;;;;;;-1.37;65.31;93678.63;4992547;28;20042;-88
2022/03/01 02:22:22;;;;;;;12.38;5.90;;;;;;;-1.10;65.41;93721.56;4975883;28;20073;-88
2022/03/01 02:25:47;;;;;;;9.80;5.25;;;;;;;-1.32;63.87;93677.09;4989070;28;20141;-88
2022/03/01 02:28:32;;;;;;;;;;;;;;;;;;;;;
2022/03/01 02:31:01;;;;;;;8.93;4.13;;;;;;;-1.44;63.90;93657.22;4974170;28;20487;-88
2022/03/01 02:33:48;;;;;;;12.13;2.80;;;;;;;-1.61;63.27;93672.06;4972660;28;20117;-88
2022/03/01 02:36:30;;;;;;;;;;;;;;;;;;;;;
2022/03/01 02:39:11;;;;;;;10.63;4.57;;;;;;;-1.51;62.91;93717.03;4974153;28;20419;-88
2022/03/01 02:41:58;;;;;;;5.65;3.30;;;;;;;-1.48;61.67;93715.88;4981518;28;20054;-87
2022/03/01 02:44:49;;;;;;;9.48;4.63;;;;;;;-1.64;62.19;93693.78;4996077;28;20046;-88
2022/03/01 02:47:44;;;;;;;9.13;3.90;;;;;;;-1.72;61.83;93684.41;4995535;28;20381;-88
2022/03/01 02:50:16;;;;;;;3.53;2.33;;;;;;;-1.73;60.66;93685.38;4995040;28;20060;-87
2022/03/01 02:52:56;;;;;;;12.68;4.25;;;;;;;-1.86;61.65;93680.09;4994340;28;20070;-88
2022/03/01 02:55:58;;;;;;;15.57;4.47;;;;;;;-1.83;61.67;93684.09;4996900;28;20042;-88
2022/03/01 02:58:29;;;;;;;9.63;4.70;;;;;;;-1.60;61.58;93720.69;4995609;28;20129;-88
2022/03/01 03:01:11;;;;;;;8.30;4.50;;;;;;;-1.66;60.97;93689.81;4980297;28;20043;-88
2022/03/01 03:03:44;;;;;;;8.80;3.95;;;;;;;-1.51;60.57;93732.44;4980273;28;20041;-88
2022/03/01 03:06:18;;;;;;;9.30;4.38;;;;;;;-1.56;60.81;93726.25;4995392;28;20121;-88
2022/03/01 03:08:54;;;;;;;;;;;;;;;;;;;;;
2022/03/01 03:11:40;;;;;;;10.68;4.68;;;;;;;-1.65;60.09;93705.00;4996654;28;20049;-88
2022/03/01 03:14:12;;;;;;;10.43;4.18;;;;;;;-1.47;60.61;93740.56;4979452;28;20046;-88
2022/03/01 03:16:45;;;;;;;7.05;4.00;;;;;;;-1.57;60.66;93712.63;4995793;28;20065;-88
2022/03/01 03:19:16;;;;;;;11.02;4.28;;;;;;;-1.61;60.19;93695.19;4992211;28;20117;-88
2022/03/01 03:22:26;;;;;;;11.57;4.93;;;;;;;-1.30;60.40;93777.91;4978915;28;20046;-88
2022/03/01 03:24:59;;;;;;;13.10;4.47;;;;;;;-1.73;59.84;93715.41;4993302;28;20054;-89
2022/03/01 03:27:37;;;;;;;8.35;4.07;;;;;;;-1.46;60.03;93752.44;4995291;28;20038;-88
2022/03/01 03:30:19;;;;;;;;;;;;;;;;;;;;;
2022/03/01 03:32:55;;;;;;;11.07;4.38;;;;;;;-1.51;59.30;93765.84;4994754;28;20062;-88
2022/03/01 03:35:25;;;;;;;13.48;4.45;;;;;;;-1.83;59.21;93717.44;4965067;28;20138;-87
2022/03/01 03:37:58;;;;;;;7.60;4.05;;;;;;;-1.65;59.59;93753.78;4975342;28;20647;-89
2022/03/01 03:40:44;;;;;;;14.15;4.43;;;;;;;-1.50;58.25;93767.41;4982974;28;20047;-88
2022/03/01 03:43:38;;;;;;;9.95;3.88;;;;;;;-1.65;57.88;93728.13;4976450;28;20480;-88
2022/03/01 03:46:27;;;;;;;9.15;3.90;;;;;;;-1.65;57.99;93764.06;4975195;28;20097;-88
2022/03/01 03:49:14;;;;;;;;;;;;;;;;;;;;;
2022/03/01 03:52:00;;;;;;;8.80;3.90;;;;;;;-1.47;57.49;93782.44;4974945;28;20031;-90
2022/03/01 03:54:50;;;;;;;9.00;3.72;;;;;;;-1.84;57.56;93721.00;4961971;28;20035;-88
2022/03/01 03:57:32;;;;;;;7.07;4.00;;;;;;;-1.80;57.14;93727.34;4994107;28;20046;-88
2022/03/01 04:00:06;;;;;;;6.95;3.97;;;;;;;-2.02;57.90;93727.31;4963575;28;20503;-88
2022/03/01 04:03:19;;;;;;;8.02;4.13;;;;;;;-1.55;58.35;93774.88;4994483;28;20038;-88
2022/03/01 04:06:00;;;;;;;10.68;4.50;;;;;;;-1.81;58.24;93741.16;5009231;28;20036;-88
2022/03/01 04:08:47;;;;;;;12.07;4.67;;;;;;;-1.77;58.59;93730.38;4973152;28;20134;-88
2022/03/01 04:11:27;;;;;;;;;;;;;;;-1.32;58.34;93799.63;4984106;28;20427;-89
2022/03/01 04:13:58;;;;;;;;;;;;;;;-1.30;58.69;93800.25;4994899;28;20371;-89
2022/03/01 04:16:55;;;;;;;;;;;;;;;;;;;;;
2022/03/01 04:19:46;;;;;;;7.78;3.63;;;;;;;-1.54;59.45;93760.25;4994010;28;20124;-88
2022/03/01 04:22:36;;;;;;;10.68;4.40;;;;;;;-1.32;58.48;93790.13;4983080;28;20046;-88
2022/03/01 04:25:26;;;;;;;9.73;4.40;;;;;;;-1.73;57.04;93725.69;4975062;28;20504;-88
2022/03/01 04:28:22;;;;;;;9.38;3.40;;;;;;;-1.72;57.83;93730.63;4974295;28;20043;-88
2022/03/01 04:31:02;;;;;;;15.60;4.68;;;;;;;-1.47;57.99;93772.16;4949777;28;20046;-88
2022/03/01 04:33:39;;;;;;;10.27;4.57;;;;;;;-1.46;58.61;93762.72;4994904;28;20568;-88
2022/03/01 04:36:38;;;;;;;10.27;3.75;;;;;;;-1.70;57.71;93725.31;4994812;28;20038;-89
2022/03/01 04:39:15;;;;;;;8.23;4.13;;;;;;;-1.54;57.88;93745.63;4969537;28;20050;-88
2022/03/01 04:44:56;;;;;;;8.82;4.40;;;;;;;-1.24;57.79;93796.91;4974512;28;20051;-88
2022/03/01 04:47:40;;;;;;;;;;;;;;;;;;;;;
2022/03/01 04:50:20;;;;;;;10.18;4.13;;;;;;;-1.33;58.24;93775.72;5007069;28;20395;-88
2022/03/01 04:53:14;;;;;;;9.38;4.30;;;;;;;-1.51;57.80;93765.84;4977236;28;20049;-89
2022/03/01 04:55:55;;;;;;;12.85;3.80;;;;;;;-1.59;57.64;93753.09;4958308;28;20444;-89
2022/03/01 04:58:33;;;;;;;10.55;4.32;;;;;;;-1.74;57.75;93732.56;4974065;28;20051;-89
2022/03/01 05:01:11;;;;;;;11.32;4.40;;;;;;;-1.50;57.18;93780.25;4976288;28;20043;-89
2022/03/01 05:03:58;;;;;;;9.82;4.07;;;;;;;-1.82;57.24;93734.44;4989435;28;20563;-89
2022/03/01 05:06:48;;;;;;;10.85;4.13;;;;;;;-1.66;57.19;93769.41;4987646;28;20106;-88
2022/03/01 05:09:26;;;;;;;;;;;;;;;;;;;;;
2022/03/01 05:12:25;;;;;;;;;;;;;;;;;;;;;
2022/03/01 05:14:59;;;;;;;8.48;3.67;;;;;;;-1.78;56.58;93748.50;4978072;28;20042;-88
2022/03/01 05:17:47;;;;;;;11.93;4.18;;;;;;;-1.83;56.41;93751.59;4958284;28;20027;-88
2022/03/01 05:20:30;;;;;;;9.88;3.63;;;;;;;-1.64;56.90;93764.84;4957528;28;20074;-88
2022/03/01 05:23:06;;;;;;;9.70;3.55;;;;;;;-1.77;56.35;93750.91;4958519;28;20035;-89
2022/03/01 05:26:03;;;;;;;7.90;3.90;;;;;;;-1.35;56.61;93807.66;4941570;28;20081;-88
2022/03/01 05:28:57;;;;;;;;;;;;;;;;;;;;;
2022/03/01 05:31:36;;;;;;;9.90;3.55;;;;;;;-1.74;55.74;93760.00;4989722;28;20511;-89
2022/03/01 05:34:13;;;;;;;10.60;4.15;;;;;;;-1.80;55.50;93745.31;4994299;28;20034;-88
2022/03/01 05:36:41;;;;;;;9.00;3.83;;;;;;;-1.73;55.00;93751.34;4956980;28;20283;-88
2022/03/01 05:39:26;;;;;;;;;;;;;;;;;;;;;
2022/03/01 05:42:08;;;;;;;9.90;3.70;;;;;;;-1.75;54.70;93748.16;4990261;28;20065;-91
2022/03/01 05:45:25;;;;;;;8.02;3.67;;;;;;;-1.45;54.45;93794.34;4989904;28;20033;-89
2022/03/01 05:48:14;;;;;;;8.10;3.58;;;;;;;-1.68;54.22;93741.31;4991286;28;20061;-89
2022/03/01 05:51:22;;;;;;;9.68;3.85;;;;;;;-1.41;54.12;93800.72;4990079;28;20054;-89
2022/03/01 05:54:11;;;;;;;;;;;;;;;;;;;;;
2022/03/01 05:59:51;;;;;;;;;;;;;;;-1.35;53.04;93815.38;4990888;28;20104;-88
2022/03/01 06:02:23;;;;;;;6.13;2.97;;;;;;;-1.70;52.78;93761.25;4974070;28;19926;-90
2022/03/01 06:07:55;;;;;;;9.32;3.55;;;;;;;-1.42;52.29;93796.53;4963789;28;20138;-89
2022/03/01 06:10:35;;;;;;;;;;;;;;;;;;;;;
2022/03/01 06:13:23;;;;;;;8.00;3.30;;;;;;;-1.74;52.64;93755.66;4991685;28;20069;-89
2022/03/01 06:16:22;;;;;;;;;;;;;;;;;;;;;
2022/03/01 06:19:22;;;;;;;;;;;;;;;;;;;;;
2022/03/01 06:22:06;;;;;;;7.93;3.40;;;;;;;-1.80;52.66;93751.28;4994111;28;20109;-88
2022/03/01 06:24:56;;;;;;;;;;;;;;;;;;;;;
2022/03/01 06:27:48;;;;;;;18.50;4.07;;;;;;;-1.75;52.68;93766.94;4992855;28;20507;-87
2022/03/01 06:30:26;;;;;;;9.10;3.65;;;;;;;-1.68;52.99;93759.31;4986052;28;20518;-89
2022/03/01 06:33:17;;;;;;;7.72;3.42;;;;;;;-1.66;53.06;93779.69;4990562;28;20045;-89
2022/03/01 06:35:51;;;;;;;11.48;4.20;;;;;;;-1.58;53.06;93790.63;4991831;28;20078;-89
2022/03/01 06:38:44;;;;;;;;;;;;;;;-1.32;53.66;93828.66;4995465;28;20491;-88
2022/03/01 06:41:46;;;;;;;8.02;3.88;;;;;;;-1.51;52.91;93799.22;4994759;28;20280;-89
2022/03/01 06:47:22;;;;;;;15.93;4.28;;;;;;;-1.47;54.13;93797.84;4992006;28;20041;-88
2022/03/01 06:50:16;;;;;;;7.93;3.83;;;;;;;-1.68;54.14;93746.47;4994879;28;20057;-89
2022/03/01 06:52:53;;;;;;;8.32;3.88;;;;;;;-1.51;54.15;93776.09;5002269;28;20046;-89
2022/03/01 06:55:42;;;;;;;11.70;4.65;;;;;;;-1.12;54.89;93826.31;5020712;28;20065;-88
2022/03/01 06:58:26;;;;;;;9.40;4.03;;;;;;;-1.56;54.54;93755.28;4986258;28;20125;-88
2022/03/01 07:01:02;;;;;;;;;;;;;;;;;;;;;
2022/03/01 07:03:42;;;;;;;8.73;3.97;;;;;;;-1.33;54.82;93777.47;4985043;28;20038;-86
2022/03/01 07:06:10;;;;;;;8.70;4.07;;;;;;;-1.07;54.88;93795.72;4985008;28;20038;-85
2022/03/01 07:08:38;;;;;;;14.40;4.43;;;;;;;-0.98;54.98;93808.47;4968892;28;20046;-85
2022/03/01 07:11:04;;;;;;;11.68;4.75;;;;;;;-0.97;54.89;93805.69;4960423;28;20078;-85
2022/03/01 07:13:30;;;;;;;8.50;4.13;;;;;;;-0.89;55.20;93815.09;4994137;28;20047;-83
2022/03/01 07:15:55;;;;;;;13.02;4.90;;;;;;;-0.92;55.17;93800.03;4990737;28;20645;-83
2022/03/01 07:18:21;;;;;;;11.43;4.60;;;;;;;-0.77;54.53;93818.75;4980713;28;20101;-83
2022/03/01 07:20:46;;;;;;;11.02;4.07;;;;;;;-0.70;55.03;93811.09;4986731;28;20035;-83
2022/03/01 07:23:13;;;;;;;7.90;4.07;;;;;;;-0.73;54.61;93814.03;4968264;28;20081;-85
2022/03/01 07:25:39;;;;;;;10.80;4.28;;;;;;;-0.68;54.38;93812.50;4983698;28;20072;-82
2022/03/01 07:28:04;;;;;;;8.23;3.80;;;;;;;-0.73;53.91;93799.41;4993718;28;20472;-84
2022/03/01 07:30:30;;;;;;;10.07;4.55;;;;;;;-0.76;54.54;93801.56;4995672;28;20551;-83
2022/03/01 07:32:57;;;;;;;8.70;4.13;;;;;;;-0.78;54.27;93806.09;4971166;28;20048;-83
2022/03/01 07:35:23;;;;;;;9.13;3.20;;;;;;;-0.97;54.36;93817.75;5009398;28;20026;-82
2022/03/01 07:37:50;;;;;;;11.98;3.83;;;;;;;-1.02;54.71;93809.81;4989502;28;20042;-83
2022/03/01 07:40:17;;;;;;;12.07;4.45;;;;;;;-1.01;54.36;93809.63;4985993;28;20034;-83
2022/03/01 07:42:43;;;;;;;9.40;4.22;;;;;;;-0.91;53.54;93819.59;4975953;28;20042;-82
2022/03/01 07:45:10;;;;;;;13.07;4.43;;;;;;;-0.86;53.65;93814.72;4980047;28;20046;-83
2022/03/01 07:47:35;;;;;;;8.70;3.97;;;;;;;-0.93;54.02;93803.56;4994694;28;20041;-83
2022/03/01 07:50:03;;;;;;;9.00;3.90;;;;;;;-0.84;53.79;93810.97;4955915;28;20117;-82
2022/03/01 07:52:28;;;;;;;9.65;3.92;;;;;;;-0.82;53.12;93789.44;4993942;28;20100;-84
2022/03/01 07:54:54;;;;;;;11.50;4.38;;;;;;;-0.86;53.19;93809.56;4993148;28;20399;-85
2022/03/01 07:57:20;;;;;;;8.73;4.50;;;;;;;-0.92;53.18;93800.81;4990271;28;20038;-83
2022/03/01 07:59:45;;;;;;;9.80;4.22;;;;;;;-0.91;53.34;93781.03;4971810;28;20034;-83
2022/03/01 08:02:11;;;;;;;7.93;3.78;;;;;;;-0.61;53.11;93798.91;4983027;28;20042;-84
2022/03/01 08:04:37;;;;;;;9.35;4.03;;;;;;;-0.61;52.52;93806.63;4993676;28;20037;-82
2022/03/01 08:07:03;;;;;;;7.65;3.67;;;;;;;-0.68;52.29;93780.84;4989682;28;20030;-83
2022/03/01 08:09:29;;;;;;;10.05;3.78;;;;;;;-0.60;51.81;93808.22;4978796;28;20054;-83
2022/03/01 08:11:54;;;;;;;7.25;3.20;;;;;;;-0.72;52.31;93801.00;4987833;28;20381;-84
2022/03/01 08:14:20;;;;;;;10.57;4.10;;;;;;;-0.69;52.01;93789.56;4981349;28;20050;-83
2022/03/01 08:16:45;;;;;;;8.98;3.90;;;;;;;-0.61;51.91;93780.91;4992804;28;20039;-83
2022/03/01 08:19:11;;;;;;;13.90;4.22;;;;;;;-0.57;52.00;93775.19;4991070;28;20044;-83
2022/03/01 08:21:36;;;;;;;8.55;4.18;;;;;;;-0.29;51.92;93793.22;4990323;28;20404;-84
2022/03/01 08:24:02;;;;;;;10.73;3.80;;;;;;;-0.13;51.31;93797.28;4987604;28;20034;-84
2022/03/01 08:26:27;;;;;;;11.40;4.32;;;;;;;-0.22;51.44;93786.34;4976036;28;20221;-83
2022/03/01 08:28:53;;;;;;;12.98;3.97;;;;;;;-0.06;51.87;93795.56;4994057;28;20038;-84
2022/03/01 08:31:19;;;;;;;8.68;4.03;;;;;;;0.04;51.77;93800.34;4975999;28;20076;-83
2022/03/01 08:33:45;;;;;;;8.73;4.25;;;;;;;0.07;51.04;93797.41;4989190;28;20044;-83
2022/03/01 08:36:14;;;;;;;13.93;4.65;;;;;;;-0.27;52.22;93786.13;4998574;28;20054;-84
2022/03/01 08:38:41;;;;;;;9.48;4.20;;;;;;;-0.16;52.16;93782.22;4996000;28;20049;-83
2022/03/01 08:41:07;;;;;;;8.27;4.10;;;;;;;-0.16;50.89;93771.91;5002753;28;20052;-83
2022/03/01 08:43:32;;;;;;;11.30;3.97;;;;;;;-0.11;52.40;93791.94;4996324;28;20050;-82
2022/03/01 08:45:58;;;;;;;11.80;4.22;;;;;;;-0.08;51.23;93791.59;4992606;28;20531;-82
2022/03/01 08:48:25;;;;;;;8.48;4.07;;;;;;;-0.08;52.75;93776.13;4992566;28;20052;-83
2022/03/01 08:50:51;;;;;;;7.68;4.03;;;;;;;0.12;53.36;93796.84;4985611;28;20057;-83
2022/03/01 08:53:19;;;;;;;9.93;3.65;;;;;;;0.24;53.47;93784.22;5000958;28;20047;-84
2022/03/01 08:55:45;;;;;;;10.75;3.95;;;;;;;0.11;52.64;93774.66;4992240;28;20124;-82
2022/03/01 08:58:12;;;;;;;9.52;3.85;;;;;;;0.10;52.23;93786.72;4962997;28;20047;-83
2022/03/01 09:00:38;;;;;;;8.00;3.78;;;;;;;0.08;51.82;93769.88;4973525;28;20566;-83
2022/03/01 09:03:04;;;;;;;9.77;4.40;;;;;;;0.12;52.25;93774.47;4991214;28;20087;-83
2022/03/01 09:05:32;;;;;;;8.90;4.32;;;;;;;0.31;51.71;93785.06;4990917;28;20103;-83
2022/03/01 09:07:58;;;;;;;10.80;3.92;;;;;;;0.50;50.90;93768.09;4985004;28;20121;-83
2022/03/01 09:10:23;;;;;;;8.25;4.10;;;;;;;0.70;51.06;93778.47;4993313;28;20042;-83
2022/03/01 09:12:53;;;;;;;9.60;4.10;;;;;;;0.58;51.66;93760.97;5006597;28;20077;-83
2022/03/01 09:15:21;;;;;;;8.15;3.88;;;;;;;0.57;52.14;93774.88;4990124;28;20067;-83
2022/03/01 09:17:47;;;;;;;8.65;4.18;;;;;;;0.57;51.51;93768.91;4990598;28;20480;-84
2022/03/01 09:20:13;;;;;;;10.50;4.13;;;;;;;0.54;50.83;93780.41;4991882;28;20042;-82
2022/03/01 09:22:40;;;;;;;13.25;4.63;;;;;;;0.44;51.09;93774.81;4991646;28;20038;-83
2022/03/01 09:25:06;;;;;;;6.57;3.58;;;;;;;0.43;51.51;93772.41;5008270;28;20049;-84
2022/03/01 09:27:33;;;;;;;8.32;4.22;;;;;;;0.48;51.36;93746.88;4992122;28;20030;-83
2022/03/01 09:29:59;;;;;;;10.15;4.45;;;;;;;0.66;51.36;93751.50;4991546;28;20050;-82
2022/03/01 09:32:26;;;;;;;8.25;4.05;;;;;;;0.99;50.75;93770.44;4955987;28;20550;-83
2022/03/01 09:34:51;;;;;;;10.05;4.20;;;;;;;0.90;49.97;93753.56;4973451;28;20066;-83
2022/03/01 09:37:17;;;;;;;9.13;3.95;;;;;;;0.74;50.76;93769.34;4987948;28;20031;-82
2022/03/01 09:39:43;;;;;;;7.63;4.00;;;;;;;0.95;50.98;93769.22;5005997;28;20074;-83
2022/03/01 09:42:09;;;;;;;8.13;4.40;;;;;;;1.02;49.33;93757.13;4991302;28;20118;-82
2022/03/01 09:44:35;;;;;;;12.77;4.20;;;;;;;1.10;49.95;93752.78;4993329;28;20491;-84
2022/03/01 09:47:02;;;;;;;9.80;4.57;;;;;;;1.18;49.58;93753.38;4966692;28;20047;-83
2022/03/01 09:49:28;;;;;;;7.68;3.60;;;;;;;1.14;49.43;93744.44;4972036;28;20038;-83
2022/03/01 09:51:55;;;;;;;9.90;4.38;;;;;;;1.21;49.21;93740.06;4960011;28;20037;-83
2022/03/01 09:54:24;;;;;;;8.52;3.53;;;;;;;1.40;49.55;93753.22;4992541;28;20046;-83
2022/03/01 09:56:49;;;;;;;11.75;4.30;;;;;;;1.37;49.22;93738.09;4971836;28;20085;-83
2022/03/01 09:59:15;;;;;;;14.07;4.60;;;;;;;1.21;49.09;93749.59;4956109;28;20034;-83
2022/03/01 10:01:51;;;;;;;11.15;4.70;;;;;;;0.96;49.87;93734.69;4939215;28;20097;-82
2022/03/01 10:04:18;;;;;;;12.35;4.88;;;;;;;1.21;49.55;93727.19;4975636;28;20034;-82
2022/03/01 10:06:46;;;;;;;12.48;4.95;;;;;;;1.17;49.60;93738.09;4991853;28;20113;-83
2022/03/01 10:09:20;;;;;;;11.93;4.65;;;;;;;1.20;49.53;93714.50;4974819;28;20081;-85
2022/03/01 10:11:47;;;;;;;12.68;5.05;;;;;;;1.37;49.07;93733.72;4959592;28;20550;-84
2022/03/01 10:14:13;;;;;;;11.27;4.18;;;;;;;1.22;49.14;93720.25;4974623;28;20104;-83
2022/03/01 10:16:44;;;;;;;15.25;4.45;;;;;;;1.39;48.43;93731.75;4990163;28;20045;-83
2022/03/01 10:19:15;;;;;;;11.35;4.63;;;;;;;1.36;49.64;93733.94;4971380;28;20043;-83
2022/03/01 10:21:42;;;;;;;13.33;5.03;;;;;;;1.19;48.63;93729.19;4976564;28;20559;-83
2022/03/01 10:24:08;;;;;;;9.98;4.75;;;;;;;1.04;49.35;93726.78;4986828;28;20030;-83
2022/03/01 10:26:37;;;;;;;10.85;4.57;;;;;;;1.03;50.07;93727.75;5002891;28;20046;-83
2022/03/01 10:29:05;;;;;;;11.05;4.72;;;;;;;1.41;49.66;93724.59;4989591;28;20037;-83
2022/03/01 10:31:33;;;;;;;15.52;5.05;;;;;;;1.52;48.80;93717.28;4992458;28;20084;-84
2022/03/01 10:34:11;;;;;;;12.32;5.35;;;;;;;1.52;47.55;93719.84;4985764;28;20393;-83
2022/03/01 10:36:48;;;;;;;10.60;5.38;;;;;;;1.58;48.86;93713.91;4988010;28;20058;-82
2022/03/01 10:39:25;;;;;;;12.85;4.43;;;;;;;1.51;47.92;93695.00;4990917;28;20476;-83
2022/03/01 10:41:51;;;;;;;14.05;5.03;;;;;;;1.67;48.00;93707.53;4987716;28;20073;-83
2022/03/01 10:44:22;;;;;;;9.63;5.07;;;;;;;1.82;48.05;93704.69;4967295;28;20098;-82
2022/03/01 10:46:55;;;;;;;10.88;5.57;;;;;;;1.95;47.31;93707.25;4991347;28;20129;-84
2022/03/01 10:49:26;;;;;;;10.38;4.50;;;;;;;1.81;47.44;93678.09;4992297;28;20046;-83
2022/03/01 10:51:58;;;;;;;9.70;4.28;;;;;;;1.69;47.79;93695.22;4982921;28;20039;-82
2022/03/01 10:54:30;;;;;;;9.93;5.07;;;;;;;1.84;47.84;93688.00;4991259;28;20046;-83
2022/03/01 10:56:57;;;;;;;13.73;4.82;;;;;;;2.53;48.34;93680.59;4981209;28;20042;-83
2022/03/01 10:59:24;;;;;;;11.70;5.38;;;;;;;2.61;46.38;93680.38;4974829;28;20436;-82
2022/03/01 11:01:50;;;;;;;11.70;4.60;;;;;;;2.88;46.13;93678.41;4973176;28;20042;-84
2022/03/01 11:04:16;;;;;;;12.25;5.00;;;;;;;2.56;45.97;93649.16;4943558;28;20585;-82
2022/03/01 11:06:42;;;;;;;11.38;5.18;;;;;;;2.96;45.51;93668.81;5006605;28;20034;-83
2022/03/01 11:09:11;;;;;;;11.23;4.95;;;;;;;3.32;45.78;93670.72;4976096;28;20090;-83
2022/03/01 11:11:38;;;;;;;9.85;3.72;;;;;;;2.90;44.29;93662.66;4994297;28;20035;-82
2022/03/01 11:14:04;;;;;;;10.48;5.50;;;;;;;2.95;44.26;93636.16;4985551;28;20069;-84
2022/03/01 11:16:42;;;;;;;12.15;5.28;;;;;;;3.53;44.66;93653.97;4993764;28;20034;-82
2022/03/01 11:19:19;;;;;;;16.48;5.05;;;;;;;2.64;46.02;93651.50;4995406;28;20073;-83
2022/03/01 11:21:50;;;;;;;9.93;4.95;;;;;;;2.63;46.58;93642.13;4992157;28;20106;-85
2022/03/01 11:24:18;;;;;;;10.27;4.72;;;;;;;2.63;46.25;93634.38;4974784;28;20027;-83
2022/03/01 11:26:45;;;;;;;9.98;5.05;;;;;;;2.83;45.52;93638.63;4974730;28;20031;-84
2022/03/01 11:29:13;;;;;;;12.13;5.97;;;;;;;2.88;46.89;93615.53;4965112;28;20042;-84
2022/03/01 11:31:40;;;;;;;9.73;4.80;;;;;;;3.39;45.07;93624.06;4972110;28;20510;-84
2022/03/01 11:34:19;;;;;;;16.02;5.32;;;;;;;3.18;44.12;93615.69;4994453;28;20039;-83
2022/03/01 11:37:03;;;;;;;10.75;4.78;;;;;;;2.99;44.54;93608.88;4965202;28;20058;-83
2022/03/01 11:39:35;;;;;;;11.52;5.20;;;;;;;3.16;43.54;93594.41;4988335;28;20379;-83
2022/03/01 11:42:05;;;;;;;13.83;5.33;;;;;;;3.99;44.77;93606.09;4994432;28;20109;-83
2022/03/01 11:44:42;;;;;;;11.18;5.88;;;;;;;4.53;42.74;93567.31;4994274;28;20053;-85
2022/03/01 11:47:09;;;;;;;11.15;5.57;;;;;;;5.43;42.00;93568.84;4977889;28;20039;-85
2022/03/01 11:49:40;;;;;;;12.45;5.70;;;;;;;6.24;40.82;93563.69;5010043;28;20464;-84
2022/03/01 11:52:19;;;;;;;12.55;5.80;;;;;;;6.59;37.95;93557.53;4993554;28;20505;-84
2022/03/01 11:54:47;;;;;;;12.38;6.20;;;;;;;6.96;36.95;93555.25;4992858;28;20049;-84
2022/03/01 11:57:14;;;;;;;14.57;5.82;;;;;;;6.88;36.85;93509.56;5009431;28;20034;-83
2022/03/01 11:59:41;;;;;;;11.63;5.78;;;;;;;7.39;35.29;93553.00;4976022;28;20038;-83
2022/03/01 12:02:08;;;;;;;12.80;5.53;;;;;;;6.36;36.42;93524.63;5009722;28;20061;-85
2022/03/01 12:04:46;;;;;;;12.27;5.32;;;;;;;5.40;38.48;93522.53;4993670;28;20039;-84
2022/03/01 12:07:17;;;;;;;13.45;5.90;;;;;;;5.13;39.52;93512.63;4961560;28;20125;-84
2022/03/01 12:09:42;;;;;;;11.48;5.60;;;;;;;5.11;40.36;93516.47;4994563;28;20057;-83
2022/03/01 12:12:09;;;;;;;11.93;5.60;;;;;;;5.16;39.15;93516.59;4978116;28;20035;-84
2022/03/01 12:14:36;;;;;;;17.25;6.10;;;;;;;4.73;40.03;93471.81;4993354;28;20030;-83
2022/03/01 12:17:03;;;;;;;14.63;6.40;;;;;;;4.79;40.31;93501.25;4994093;28;20054;-85
2022/03/01 12:19:32;;;;;;;14.48;6.93;;;;;;;4.74;39.59;93494.13;4974123;28;20027;-83
2022/03/01 12:21:59;;;;;;;11.10;4.82;;;;;;;4.10;41.05;93472.41;4970714;28;20129;-83
2022/03/01 12:24:29;;;;;;;13.88;6.38;;;;;;;5.16;39.40;93472.47;4993590;28;20042;-83
2022/03/01 12:26:57;;;;;;;11.70;6.55;;;;;;;4.89;39.01;93435.84;4992227;28;20034;-84
2022/03/01 12:29:30;;;;;;;14.23;6.30;;;;;;;5.33;38.47;93446.56;4977045;28;20041;-85
2022/03/01 12:32:10;;;;;;;17.75;6.60;;;;;;;4.86;40.34;93464.81;4977317;28;20034;-83
2022/03/01 12:34:38;;;;;;;12.27;6.50;;;;;;;4.48;40.27;93429.72;4993322;28;20571;-84
2022/03/01 12:37:08;;;;;;;10.02;5.57;;;;;;;4.85;38.87;93411.34;4993027;28;20108;-85
2022/03/01 12:39:36;;;;;;;15.18;6.40;;;;;;;5.22;39.10;93472.34;4993391;28;20095;-84
2022/03/01 12:42:05;;;;;;;13.73;6.82;;;;;;;5.97;38.37;93434.28;4973769;28;20042;-84
2022/03/01 12:44:31;;;;;;;14.75;6.88;;;;;;;5.75;37.72;93417.75;4992857;28;20129;-84
2022/03/01 12:46:58;;;;;;;15.00;7.43;;;;;;;6.78;37.50;93422.78;4993190;28;20030;-84
2022/03/01 12:49:25;;;;;;;12.63;6.47;;;;;;;7.29;35.48;93437.25;4993251;28;20045;-84
2022/03/01 12:51:54;;;;;;;13.98;7.00;;;;;;;7.43;35.04;93440.28;4987189;28;20483;-84
2022/03/01 12:54:29;;;;;;;18.88;7.75;;;;;;;7.99;35.11;93447.09;4974060;28;20064;-84
2022/03/01 12:56:57;;;;;;;17.52;6.97;;;;;;;8.30;34.31;93437.72;4975443;28;20045;-84
2022/03/01 12:59:27;;;;;;;13.23;6.88;;;;;;;8.30;33.75;93448.94;4990743;28;20513;-84
2022/03/01 13:01:59;;;;;;;15.80;7.13;;;;;;;8.24;34.16;93431.69;4992717;28;20084;-85
2022/03/01 13:04:29;;;;;;;12.27;5.95;;;;;;;6.97;35.64;93431.09;4990873;28;20039;-85
2022/03/01 13:06:55;;;;;;;12.95;7.60;;;;;;;6.75;35.60;93399.81;4992235;28;20436;-85
2022/03/01 13:09:21;;;;;;;11.90;6.90;;;;;;;6.14;36.44;93430.91;4993755;28;20065;-84
2022/03/01 13:11:47;;;;;;;14.10;7.38;;;;;;;6.28;37.07;93429.56;4989044;28;20035;-84